Time;durP1;ratioP1;P1;durP2;ratioP2;P2;SDS_P1;SDS_P2;PMS_P1;PMS_P2;Temp;Humidity;BMP_temperature;BMP_pressure;BME280_temperature;BME280_humidity;BME280_pressure;Samples;Min_cycle;Max_cycle;Signal;HPM_P1;HPM_P2
2023/05/18 00:01:02;;;;;;;13.00;8.47;;;5.70;22.00;;;;;;5093852;28;20184;-44
2023/05/18 00:03:28;;;;;;;11.00;8.00;;;5.70;99.90;;;;;;5095816;28;20172;-45
2023/05/18 00:05:56;;;;;;;10.00;8.33;;;5.60;99.90;;;;;;5095856;28;20411;-45
2023/05/18 00:08:22;;;;;;;13.17;9.30;;;5.60;99.90;;;;;;5095177;28;20800;-50
2023/05/18 00:10:47;;;;;;;8.37;6.93;;;5.60;99.90;;;;;;5095389;28;20649;-46
2023/05/18 00:13:13;;;;;;;10.90;7.23;;;5.60;99.90;;;;;;5094589;28;20238;-45
2023/05/18 00:15:39;;;;;;;11.50;7.10;;;5.60;99.90;;;;;;5097355;28;20275;-45
2023/05/18 00:18:05;;;;;;;10.57;7.53;;;5.60;99.90;;;;;;5098834;28;20547;-47
2023/05/18 00:20:31;;;;;;;11.20;8.00;;;5.60;99.90;;;;;;5100609;28;20176;-46
2023/05/18 00:22:56;;;;;;;10.17;7.80;;;5.60;99.90;;;;;;5100157;28;20784;-46
2023/05/18 00:25:22;;;;;;;9.23;7.50;;;5.50;99.90;;;;;;5100677;28;20205;-46
2023/05/18 00:27:48;;;;;;;11.80;7.40;;;5.50;99.90;;;;;;5100100;28;20331;-45
2023/05/18 00:30:14;;;;;;;10.53;7.97;;;5.40;99.90;;;;;;5099498;28;20176;-44
2023/05/18 00:32:40;;;;;;;9.87;6.97;;;5.40;99.90;;;;;;5098296;28;20855;-44
2023/05/18 00:35:06;;;;;;;9.53;8.10;;;5.40;99.90;;;;;;5098017;28;20410;-45
2023/05/18 00:37:32;;;;;;;11.23;8.30;;;5.40;99.90;;;;;;5098714;28;20172;-44
2023/05/18 00:39:57;;;;;;;12.73;8.60;;;5.40;99.90;;;;;;5099030;28;20428;-44
2023/05/18 00:42:23;;;;;;;10.23;8.00;;;5.40;99.90;;;;;;5098215;28;20202;-45
2023/05/18 00:44:48;;;;;;;9.80;8.17;;;5.40;99.90;;;;;;5097296;28;20199;-44
2023/05/18 00:47:14;;;;;;;9.93;7.90;;;5.40;99.90;;;;;;5099539;28;20195;-46
2023/05/18 00:49:40;;;;;;;10.43;7.80;;;5.40;99.90;;;;;;5100521;28;20173;-44
2023/05/18 00:52:06;;;;;;;13.10;8.93;;;5.30;99.90;;;;;;5100209;28;20469;-44
2023/05/18 00:54:33;;;;;;;8.90;7.27;;;5.30;99.90;;;;;;5099895;28;20406;-45
2023/05/18 00:57:01;;;;;;;8.47;7.60;;;5.30;99.90;;;;;;5099492;28;20194;-44
2023/05/18 00:59:28;;;;;;;12.17;7.70;;;5.30;99.90;;;;;;5099088;28;20427;-47
2023/05/18 01:01:54;;;;;;;11.13;7.60;;;5.30;99.90;;;;;;5086226;28;20423;-45
2023/05/18 01:04:20;;;;;;;10.33;8.00;;;5.20;99.90;;;;;;5077055;28;20522;-45
2023/05/18 01:06:46;;;;;;;9.67;7.63;;;5.20;99.90;;;;;;5075446;28;20200;-45
2023/05/18 01:09:12;;;;;;;11.40;6.87;;;5.20;99.90;;;;;;5075007;28;20427;-46
2023/05/18 01:11:59;;;;;;;9.13;6.60;;;5.10;99.90;;;;;;5075144;28;20415;-46
2023/05/18 01:14:48;;;;;;;9.10;7.20;;;5.10;99.90;;;;;;5076727;28;20465;-44
2023/05/18 01:17:20;;;;;;;8.90;7.50;;;5.10;99.90;;;;;;5076118;28;20774;-45
2023/05/18 01:20:06;;;;;;;8.67;7.20;;;5.10;99.90;;;;;;5076659;28;20399;-44
2023/05/18 01:23:08;;;;;;;9.40;7.73;;;5.00;99.90;;;;;;5076531;28;20419;-46
2023/05/18 01:25:58;;;;;;;11.50;7.20;;;5.00;99.90;;;;;;5076918;28;20815;-46
2023/05/18 01:28:29;;;;;;;8.23;7.43;;;5.00;99.90;;;;;;5075039;28;20482;-46
2023/05/18 01:30:55;;;;;;;11.53;7.90;;;4.90;99.90;;;;;;5075149;28;20510;-45
2023/05/18 01:33:23;;;;;;;8.33;7.43;;;4.90;99.90;;;;;;5073944;28;20929;-44
2023/05/18 01:35:49;;;;;;;12.87;7.57;;;4.90;99.90;;;;;;5074774;28;20403;-46
2023/05/18 01:38:17;;;;;;;11.40;7.90;;;4.80;99.90;;;;;;5073802;28;20498;-44
2023/05/18 01:41:04;;;;;;;10.03;7.70;;;4.80;99.90;;;;;;5074297;28;20829;-46
2023/05/18 01:43:34;;;;;;;11.57;7.97;;;4.80;1.00;;;;;;5076066;28;20427;-45
2023/05/18 01:46:21;;;;;;;8.77;7.53;;;4.80;1.00;;;;;;5075768;28;20426;-45
2023/05/18 01:48:53;;;;;;;9.83;7.80;;;4.80;1.00;;;;;;5067883;28;20457;-44
2023/05/18 01:51:20;;;;;;;9.40;7.70;;;4.80;1.00;;;;;;5072506;28;20500;-46
2023/05/18 01:53:52;;;;;;;12.60;8.17;;;4.70;1.00;;;;;;5073940;28;20489;-45
2023/05/18 01:56:19;;;;;;;11.57;8.07;;;4.70;1.00;;;;;;5075094;28;20423;-43
2023/05/18 01:58:45;;;;;;;8.80;7.10;;;4.80;1.00;;;;;;5076671;28;20817;-44
2023/05/18 02:01:11;;;;;;;9.83;7.50;;;4.80;1.00;;;;;;5076345;28;20879;-44
2023/05/18 02:03:36;;;;;;;8.97;7.00;;;4.80;1.00;;;;;;5075718;28;20188;-44
2023/05/18 02:06:02;;;;;;;12.77;8.47;;;4.80;1.00;;;;;;5077080;28;20482;-46
2023/05/18 02:08:27;;;;;;;8.27;7.20;;;4.80;1.00;;;;;;5076975;28;20196;-45
2023/05/18 02:10:53;;;;;;;11.97;8.63;;;4.80;1.00;;;;;;5077600;28;20582;-43
2023/05/18 02:13:19;;;;;;;9.23;7.13;;;4.80;1.00;;;;;;5076669;28;20233;-47
2023/05/18 02:15:44;;;;;;;10.63;8.00;;;4.70;1.00;;;;;;5077396;28;20431;-43
2023/05/18 02:18:10;;;;;;;10.83;8.33;;;4.70;1.00;;;;;;5077676;28;20264;-44
2023/05/18 02:23:58;;;;;;;8.80;7.57;;;4.70;1.00;;;;;;5076756;28;20204;-45
2023/05/18 02:26:23;;;;;;;11.00;8.00;;;4.70;1.00;;;;;;5076389;28;20483;-45
2023/05/18 02:28:49;;;;;;;8.47;7.57;;;4.60;1.00;;;;;;5076971;28;20272;-44
2023/05/18 02:31:14;;;;;;;9.93;6.80;;;4.60;1.00;;;;;;5077030;28;20161;-44
2023/05/18 02:33:40;;;;;;;10.90;6.97;;;4.60;1.00;;;;;;5077284;28;20204;-44
2023/05/18 02:36:12;;;;;;;10.37;6.80;;;4.60;1.00;;;;;;5077033;28;20207;-43
2023/05/18 02:38:41;;;;;;;8.93;7.23;;;4.60;1.00;;;;;;5077018;28;20188;-45
2023/05/18 02:41:07;;;;;;;8.13;7.20;;;4.60;1.00;;;;;;5075968;28;20419;-45
2023/05/18 02:43:33;;;;;;;10.97;7.87;;;4.50;1.00;;;;;;5075335;28;20500;-46
2023/05/18 02:45:59;;;;;;;8.50;7.57;;;4.50;1.00;;;;;;5076476;28;20416;-45
2023/05/18 02:48:25;;;;;;;9.70;7.97;;;4.50;1.00;;;;;;5076676;28;20763;-45
2023/05/18 02:50:50;;;;;;;9.40;8.40;;;4.50;1.00;;;;;;5076535;28;20411;-45
2023/05/18 02:53:16;;;;;;;12.60;7.97;;;4.40;1.00;;;;;;5077141;28;20212;-45
2023/05/18 02:55:42;;;;;;;12.97;8.83;;;4.40;1.00;;;;;;5077317;28;20411;-44
2023/05/18 02:58:08;;;;;;;11.50;7.80;;;4.30;1.00;;;;;;5077448;28;20200;-43
2023/05/18 03:00:34;;;;;;;9.70;7.40;;;4.30;1.00;;;;;;5077216;28;20514;-45
2023/05/18 03:03:00;;;;;;;9.70;7.30;;;4.20;1.00;;;;;;5076608;28;20502;-45
2023/05/18 03:05:26;;;;;;;10.40;7.90;;;4.20;1.00;;;;;;5076460;28;20450;-46
2023/05/18 03:07:53;;;;;;;10.97;8.50;;;4.20;1.00;;;;;;5077603;28;20423;-44
2023/05/18 03:10:19;;;;;;;9.60;7.70;;;4.20;1.00;;;;;;5077053;28;20494;-45
2023/05/18 03:12:45;;;;;;;10.30;7.87;;;4.20;1.00;;;;;;5075846;28;20644;-45
2023/05/18 03:15:12;;;;;;;8.93;8.00;;;4.20;1.00;;;;;;5076656;28;20494;-45
2023/05/18 03:17:39;;;;;;;9.20;7.77;;;4.20;1.00;;;;;;5076956;28;20482;-45
2023/05/18 03:20:06;;;;;;;9.77;7.77;;;4.20;1.00;;;;;;5076203;28;20473;-44
2023/05/18 03:22:32;;;;;;;8.87;7.90;;;4.20;1.00;;;;;;5076382;28;20449;-47
2023/05/18 03:24:57;;;;;;;10.17;8.13;;;4.10;1.00;;;;;;5075958;28;20800;-45
2023/05/18 03:27:25;;;;;;;8.70;7.23;;;4.10;1.00;;;;;;5076257;28;20576;-45
2023/05/18 03:29:56;;;;;;;10.83;9.03;;;4.10;1.00;;;;;;5076688;28;20177;-47
2023/05/18 03:32:21;;;;;;;11.43;8.33;;;4.10;1.00;;;;;;5076838;28;20506;-51
2023/05/18 03:34:47;;;;;;;10.93;8.20;;;4.10;1.00;;;;;;5075824;28;20809;-47
2023/05/18 03:37:13;;;;;;;8.77;7.37;;;4.10;1.00;;;;;;5076039;28;20183;-44
2023/05/18 03:39:39;;;;;;;11.67;8.30;;;4.00;1.00;;;;;;5075819;28;20195;-44
2023/05/18 03:42:05;;;;;;;13.70;7.93;;;4.00;1.00;;;;;;5075625;28;20742;-46
2023/05/18 03:44:31;;;;;;;8.80;7.90;;;4.00;1.00;;;;;;5075277;28;20455;-45
2023/05/18 03:46:56;;;;;;;11.07;8.77;;;4.00;1.00;;;;;;5075304;28;20315;-44
2023/05/18 03:49:22;;;;;;;10.10;7.67;;;4.00;1.00;;;;;;5077432;28;20200;-44
2023/05/18 03:51:47;;;;;;;10.80;8.43;;;4.00;1.00;;;;;;5078144;28;20177;-46
2023/05/18 03:54:13;;;;;;;10.40;8.33;;;4.00;1.00;;;;;;5079812;28;20512;-44
2023/05/18 03:56:38;;;;;;;12.60;9.10;;;4.00;1.00;;;;;;5080406;28;20318;-45
2023/05/18 03:59:05;;;;;;;8.77;7.90;;;4.00;1.00;;;;;;5080185;28;20182;-44
2023/05/18 04:01:31;;;;;;;13.93;8.93;;;4.00;1.00;;;;;;5080822;28;20277;-45
2023/05/18 04:03:57;;;;;;;9.73;7.30;;;4.00;1.00;;;;;;5080348;28;20670;-46
2023/05/18 04:06:24;;;;;;;12.63;9.70;;;4.00;1.00;;;;;;5081000;28;20498;-46
2023/05/18 04:08:51;;;;;;;8.87;7.97;;;4.00;1.00;;;;;;5081592;28;20486;-46
2023/05/18 04:11:17;;;;;;;10.10;7.83;;;4.10;1.00;;;;;;5079808;28;20659;-44
2023/05/18 04:13:42;;;;;;;10.50;8.83;;;4.20;36.20;;;;;;5081161;28;20493;-43
2023/05/18 04:16:12;;;;;;;11.77;7.97;;;4.20;13.90;;;;;;5081132;28;20261;-45
2023/05/18 04:18:38;;;;;;;11.07;8.73;;;4.30;1.00;;;;;;5081081;28;20174;-44
2023/05/18 04:21:05;;;;;;;15.30;8.67;;;4.30;25.70;;;;;;5081057;28;20419;-44
2023/05/18 04:23:32;;;;;;;11.40;8.43;;;4.40;99.90;;;;;;5081018;28;20435;-44
2023/05/18 04:25:58;;;;;;;11.17;7.23;;;4.50;99.90;;;;;;5081171;28;20418;-44
2023/05/18 04:28:24;;;;;;;14.73;8.93;;;4.60;99.90;;;;;;5080910;28;20540;-45
2023/05/18 04:30:50;;;;;;;8.97;7.67;;;4.70;90.10;;;;;;5081035;28;20423;-44
2023/05/18 04:33:16;;;;;;;8.83;7.90;;;4.80;78.50;;;;;;5079605;28;20240;-45
2023/05/18 04:35:43;;;;;;;15.43;7.83;;;4.90;44.70;;;;;;5080333;28;20412;-48
2023/05/18 04:38:09;;;;;;;9.10;8.07;;;5.00;37.40;;;;;;5079534;28;20464;-45
2023/05/18 04:40:36;;;;;;;10.03;7.37;;;5.10;1.00;;;;;;5079295;28;20408;-44
2023/05/18 04:43:02;;;;;;;11.43;7.20;;;5.20;1.00;;;;;;5079124;28;20530;-45
2023/05/18 04:45:28;;;;;;;10.50;8.53;;;5.30;1.00;;;;;;5079374;28;20488;-44
2023/05/18 04:47:54;;;;;;;8.97;7.60;;;5.40;1.00;;;;;;5079738;28;20423;-45
2023/05/18 04:50:22;;;;;;;11.87;7.90;;;5.50;1.00;;;;;;5079671;28;20481;-46
2023/05/18 04:52:48;;;;;;;9.63;7.23;;;5.60;1.00;;;;;;5079917;28;20215;-47
2023/05/18 04:55:21;;;;;;;9.47;7.37;;;5.60;1.00;;;;;;5079568;28;20411;-45
2023/05/18 04:57:49;;;;;;;10.30;7.73;;;5.70;1.00;;;;;;5079654;28;20519;-46
2023/05/18 05:00:15;;;;;;;10.00;7.83;;;5.80;1.00;;;;;;5078441;28;20418;-47
2023/05/18 05:02:41;;;;;;;12.90;7.20;;;5.90;99.90;;;;;;5078010;28;20891;-47
2023/05/18 05:05:07;;;;;;;8.83;7.27;;;5.90;99.90;;;;;;5077529;28;20674;-46
2023/05/18 05:07:33;;;;;;;8.90;7.60;;;6.00;99.90;;;;;;5078501;28;20193;-45
2023/05/18 05:09:59;;;;;;;11.40;6.83;;;6.10;99.90;;;;;;5088191;28;20432;-46
2023/05/18 05:12:26;;;;;;;11.27;7.50;;;6.10;99.90;;;;;;5098446;28;20200;-47
2023/05/18 05:14:58;;;;;;;13.53;7.73;;;6.20;99.90;;;;;;5091627;28;20697;-46
2023/05/18 05:17:24;;;;;;;9.07;7.13;;;6.30;99.90;;;;;;5092359;28;20460;-47
2023/05/18 05:19:50;;;;;;;9.93;7.70;;;6.40;99.90;;;;;;5098201;28;20976;-47
2023/05/18 05:22:16;;;;;;;8.20;7.37;;;6.50;1.00;;;;;;5098339;28;20418;-45
2023/05/18 05:24:42;;;;;;;12.87;6.83;;;6.50;1.00;;;;;;5097664;28;20172;-48
2023/05/18 05:27:10;;;;;;;9.00;6.53;;;6.70;1.00;;;;;;5098243;28;20437;-45
2023/05/18 05:29:36;;;;;;;8.00;6.37;;;6.80;1.00;;;;;;5097831;28;20236;-45
2023/05/18 05:32:03;;;;;;;10.40;6.43;;;6.90;1.00;;;;;;5096847;28;20468;-48
2023/05/18 05:34:31;;;;;;;8.47;6.37;;;7.00;99.90;;;;;;5096822;28;20538;-46
2023/05/18 05:36:56;;;;;;;9.97;6.43;;;7.10;1.00;;;;;;5095945;28;20459;-46
2023/05/18 05:39:22;;;;;;;10.30;6.60;;;7.30;99.90;;;;;;5097015;28;20430;-46
2023/05/18 05:41:48;;;;;;;10.97;6.50;;;7.40;99.90;;;;;;5096106;28;20434;-46
2023/05/18 05:44:13;;;;;;;14.80;7.10;;;7.40;1.00;;;;;;5097216;28;20168;-45
2023/05/18 05:46:39;;;;;;;7.80;5.43;;;7.40;1.00;;;;;;5096592;28;20214;-46
2023/05/18 05:49:05;;;;;;;8.80;6.00;;;7.50;99.90;;;;;;5096938;28;20173;-45
2023/05/18 05:51:30;;;;;;;12.07;6.80;;;7.70;99.90;;;;;;5096287;28;20200;-45
2023/05/18 05:53:56;;;;;;;16.70;6.67;;;7.70;1.00;;;;;;5095886;28;20501;-47
2023/05/18 05:56:21;;;;;;;7.27;5.53;;;7.80;1.00;;;;;;5097673;28;20289;-45
2023/05/18 05:58:47;;;;;;;6.93;5.80;;;7.90;1.00;;;;;;5097090;28;20259;-47
2023/05/18 06:01:14;;;;;;;9.90;5.80;;;8.00;99.90;;;;;;5094979;28;20574;-46
2023/05/18 06:03:40;;;;;;;8.17;6.40;;;8.10;99.90;;;;;;5096417;28;20180;-47
2023/05/18 06:06:06;;;;;;;6.30;4.93;;;8.20;83.50;;;;;;5096778;28;20418;-45
2023/05/18 06:08:34;;;;;;;9.27;6.50;;;8.40;55.90;;;;;;5096510;28;20172;-46
2023/05/18 06:11:00;;;;;;;10.97;5.80;;;8.50;99.90;;;;;;5097125;28;20181;-45
2023/05/18 06:13:26;;;;;;;10.90;5.40;;;8.70;99.90;;;;;;5097220;28;20473;-45
2023/05/18 06:15:51;;;;;;;8.43;5.90;;;8.90;1.00;;;;;;5097458;28;20214;-45
2023/05/18 06:18:17;;;;;;;11.80;5.77;;;9.10;1.00;;;;;;5096608;28;20183;-45
2023/05/18 06:20:43;;;;;;;7.43;5.10;;;9.20;99.90;;;;;;5097550;28;20182;-46
2023/05/18 06:23:08;;;;;;;6.37;5.17;;;9.30;9.00;;;;;;5097828;28;20443;-46
2023/05/18 06:25:34;;;;;;;7.50;5.20;;;9.40;1.00;;;;;;5096810;28;20184;-47
2023/05/18 06:27:59;;;;;;;9.73;5.70;;;9.60;1.00;;;;;;5096266;28;20236;-46
2023/05/18 06:30:25;;;;;;;7.57;4.90;;;9.80;99.90;;;;;;5097539;28;20184;-46
2023/05/18 06:32:51;;;;;;;9.10;6.57;;;9.90;84.60;;;;;;5097074;28;20605;-45
2023/05/18 06:35:16;;;;;;;9.17;6.07;;;10.10;21.40;;;;;;5097740;28;20316;-45
2023/05/18 06:37:42;;;;;;;8.83;5.30;;;10.30;1.00;;;;;;5099379;28;20184;-47
2023/05/18 06:40:08;;;;;;;6.77;5.17;;;10.40;1.00;;;;;;5097702;28;20321;-46
2023/05/18 06:42:33;;;;;;;7.63;5.07;;;10.50;1.00;;;;;;5098593;28;20545;-45
2023/05/18 06:44:59;;;;;;;9.57;5.10;;;10.60;1.00;;;;;;5098312;28;20700;-48
2023/05/18 06:47:25;;;;;;;10.67;5.13;;;10.70;1.00;;;;;;5098601;28;20207;-44
2023/05/18 06:49:50;;;;;;;8.07;5.70;;;10.90;1.00;;;;;;5098670;28;20228;-46
2023/05/18 06:52:16;;;;;;;7.80;4.80;;;11.00;99.90;;;;;;5097052;28;20218;-46
2023/05/18 06:54:42;;;;;;;7.63;4.57;;;11.20;99.90;;;;;;5097715;28;20180;-47
2023/05/18 06:57:07;;;;;;;9.23;5.50;;;11.40;99.90;;;;;;5097385;28;20470;-45
2023/05/18 06:59:36;;;;;;;7.50;5.40;;;11.60;99.90;;;;;;5097790;28;20200;-47
2023/05/18 07:02:02;;;;;;;8.93;5.20;;;11.80;99.90;;;;;;5097413;28;20187;-45
2023/05/18 07:04:27;;;;;;;6.70;5.40;;;12.00;99.90;;;;;;5097010;28;20445;-48
2023/05/18 07:06:54;;;;;;;9.47;5.10;;;12.10;99.90;;;;;;5095147;28;20415;-46
2023/05/18 07:09:21;;;;;;;5.60;4.83;;;12.30;99.90;;;;;;5096227;28;20173;-45
2023/05/18 07:11:47;;;;;;;8.90;5.37;;;12.50;99.90;;;;;;5094684;28;21007;-47
2023/05/18 07:14:12;;;;;;;7.50;4.40;;;12.60;99.90;;;;;;5096735;28;20598;-45
2023/05/18 07:16:38;;;;;;;11.77;5.43;;;12.90;99.90;;;;;;5095648;28;20202;-47
2023/05/18 07:19:04;;;;;;;13.87;5.87;;;13.10;48.00;;;;;;5095873;28;20172;-47
2023/05/18 07:21:30;;;;;;;7.97;5.00;;;13.30;27.50;;;;;;5095024;28;20678;-49
2023/05/18 07:23:55;;;;;;;6.63;4.70;;;13.40;11.40;;;;;;5097416;28;20176;-47
2023/05/18 07:26:21;;;;;;;9.33;5.37;;;13.40;7.60;;;;;;5099552;28;20537;-46
2023/05/18 07:28:47;;;;;;;8.03;4.60;;;13.50;1.00;;;;;;5099980;28;20388;-47
2023/05/18 07:31:15;;;;;;;7.10;4.87;;;13.70;1.00;;;;;;5100617;28;20521;-46
2023/05/18 07:33:43;;;;;;;10.63;5.17;;;13.80;1.00;;;;;;5100083;28;20590;-46
2023/05/18 07:36:09;;;;;;;8.70;6.03;;;14.00;1.00;;;;;;5101724;28;20869;-46
2023/05/18 07:38:35;;;;;;;7.17;5.13;;;14.30;1.00;;;;;;5100757;28;20411;-46
2023/05/18 07:41:00;;;;;;;9.47;5.53;;;14.50;1.00;;;;;;5099764;28;20438;-45
2023/05/18 07:43:26;;;;;;;10.20;6.10;;;14.50;1.00;;;;;;5100911;28;20409;-47
2023/05/18 07:45:51;;;;;;;10.67;5.37;;;14.60;1.00;;;;;;5101046;28;20292;-46
2023/05/18 07:48:17;;;;;;;9.03;4.83;;;14.80;1.00;;;;;;5101959;28;20271;-47
2023/05/18 07:50:43;;;;;;;7.83;4.90;;;14.90;1.00;;;;;;5100394;28;20180;-47
2023/05/18 07:53:09;;;;;;;8.30;5.97;;;15.10;1.00;;;;;;5099454;28;20211;-46
2023/05/18 07:55:34;;;;;;;9.70;5.90;;;15.20;1.00;;;;;;5099465;28;20431;-46
2023/05/18 07:58:00;;;;;;;11.07;4.90;;;15.20;1.00;;;;;;5098471;28;20226;-46
2023/05/18 08:00:26;;;;;;;9.30;5.03;;;15.30;1.00;;;;;;5088166;28;20184;-44
2023/05/18 08:02:52;;;;;;;9.53;5.40;;;15.60;1.00;;;;;;5091647;28;20263;-44
2023/05/18 08:05:21;;;;;;;12.03;5.03;;;15.80;1.00;;;;;;5078102;28;20459;-46
2023/05/18 08:07:47;;;;;;;8.13;5.53;;;15.90;1.00;;;;;;5077647;28;20488;-47
2023/05/18 08:10:12;;;;;;;7.60;4.63;;;16.00;1.00;;;;;;5085854;28;20446;-46
2023/05/18 08:12:38;;;;;;;11.63;5.60;;;16.20;1.00;;;;;;5077405;28;20520;-46
2023/05/18 08:15:04;;;;;;;6.50;5.00;;;16.30;1.00;;;;;;5098828;28;20453;-46
2023/05/18 08:17:30;;;;;;;8.30;6.07;;;16.30;1.00;;;;;;5098609;28;20176;-47
2023/05/18 08:19:56;;;;;;;5.97;5.20;;;16.10;1.00;;;;;;5098637;28;20459;-47
2023/05/18 08:22:21;;;;;;;8.80;5.00;;;15.70;1.00;;;;;;5099706;28;20805;-48
2023/05/18 08:24:47;;;;;;;6.43;5.83;;;15.80;1.00;;;;;;5099103;28;20530;-46
2023/05/18 08:27:13;;;;;;;9.93;5.57;;;15.90;1.00;;;;;;5100475;28;20176;-45
2023/05/18 08:29:38;;;;;;;10.07;5.20;;;16.00;1.00;;;;;;5100876;28;20525;-47
2023/05/18 08:32:07;;;;;;;12.17;5.63;;;16.30;1.00;;;;;;5100198;28;20218;-47
2023/05/18 08:34:33;;;;;;;8.50;5.43;;;16.40;1.00;;;;;;5099651;28;20177;-46
2023/05/18 08:36:59;;;;;;;7.67;5.77;;;16.30;1.00;;;;;;5093324;28;20491;-46
2023/05/18 08:39:25;;;;;;;6.23;5.07;;;16.40;1.00;;;;;;5095601;28;20445;-46
2023/05/18 08:42:06;;;;;;;7.90;6.80;;;16.60;1.00;;;;;;5080160;28;20161;-46
2023/05/18 08:44:42;;;;;;;8.40;5.30;;;16.40;1.00;;;;;;5079862;28;20184;-46
2023/05/18 08:47:10;;;;;;;7.33;5.47;;;16.60;1.00;;;;;;5079281;28;20407;-47
2023/05/18 08:49:36;;;;;;;6.90;5.13;;;17.00;1.00;;;;;;5091396;28;20458;-47
2023/05/18 08:52:06;;;;;;;6.73;5.03;;;17.30;1.00;;;;;;5097145;28;20414;-47
2023/05/18 08:54:32;;;;;;;9.33;6.10;;;17.60;1.00;;;;;;5096246;28;20438;-47
2023/05/18 08:56:58;;;;;;;11.07;5.73;;;17.80;1.00;;;;;;5097373;28;20413;-47
2023/05/18 08:59:25;;;;;;;5.57;4.90;;;17.80;1.00;;;;;;5099394;28;20587;-47
2023/05/18 09:01:53;;;;;;;13.00;5.60;;;17.80;1.00;;;;;;5097448;28;20176;-48
2023/05/18 09:04:20;;;;;;;8.73;5.33;;;17.80;1.00;;;;;;5097194;28;20468;-46
2023/05/18 09:06:47;;;;;;;8.83;4.90;;;17.80;1.00;;;;;;5079069;28;20438;-46
2023/05/18 09:09:13;;;;;;;6.73;5.37;;;17.90;1.00;;;;;;5097377;28;20414;-46
2023/05/18 09:11:39;;;;;;;9.87;5.83;;;18.10;1.00;;;;;;5077550;28;20411;-46
2023/05/18 09:14:04;;;;;;;9.23;5.77;;;17.90;1.00;;;;;;5078172;28;20466;-46
2023/05/18 09:16:31;;;;;;;7.87;5.50;;;18.10;1.00;;;;;;5076730;28;20521;-45
2023/05/18 09:18:57;;;;;;;6.20;4.97;;;17.90;1.00;;;;;;5077743;28;20165;-47
2023/05/18 09:21:22;;;;;;;7.83;4.57;;;18.00;1.00;;;;;;5097247;28;20426;-48
2023/05/18 09:23:49;;;;;;;8.03;5.00;;;18.30;1.00;;;;;;5097479;28;20173;-46
2023/05/18 09:26:15;;;;;;;7.80;5.47;;;18.40;1.00;;;;;;5097010;28;20184;-47
2023/05/18 09:28:42;;;;;;;10.70;6.13;;;18.70;1.00;;;;;;5097087;28;20450;-46
2023/05/18 09:31:11;;;;;;;8.40;5.93;;;18.40;1.00;;;;;;5096463;28;20558;-48
2023/05/18 09:33:38;;;;;;;7.77;5.60;;;18.10;1.00;;;;;;5097502;28;20473;-47
2023/05/18 09:36:07;;;;;;;11.53;5.80;;;17.60;1.00;;;;;;5092449;28;20430;-48
2023/05/18 09:38:38;;;;;;;8.07;4.90;;;17.20;1.00;;;;;;5096905;28;20467;-47
2023/05/18 09:41:10;;;;;;;8.33;5.97;;;17.20;1.00;;;;;;5096399;28;20470;-47
2023/05/18 09:43:37;;;;;;;8.73;5.27;;;17.40;1.00;;;;;;5095922;28;20925;-48
2023/05/18 09:46:07;;;;;;;5.97;3.70;;;18.10;1.00;;;;;;5092437;28;20678;-48
2023/05/18 09:48:35;;;;;;;6.43;5.10;;;18.90;1.00;;;;;;5076896;28;20415;-47
2023/05/18 09:51:01;;;;;;;7.23;5.23;;;19.70;1.00;;;;;;5076459;28;20462;-47
2023/05/18 09:53:27;;;;;;;5.30;4.80;;;20.20;1.00;;;;;;5085349;28;20477;-49
2023/05/18 09:55:52;;;;;;;7.20;4.30;;;20.30;1.00;;;;;;5092669;28;20424;-48
2023/05/18 09:58:18;;;;;;;6.17;4.17;;;20.50;1.00;;;;;;5081184;28;20181;-47
2023/05/18 10:00:52;;;;;;;9.07;5.20;;;20.60;1.00;;;;;;5088166;28;20177;-47
2023/05/18 10:03:21;;;;;;;7.43;4.90;;;20.40;1.00;;;;;;5084556;28;20163;-48
2023/05/18 10:05:48;;;;;;;7.87;4.27;;;20.00;1.00;;;;;;5078327;28;20452;-49
2023/05/18 10:08:15;;;;;;;10.70;6.30;;;20.30;1.00;;;;;;5080154;28;20410;-47
2023/05/18 10:10:44;;;;;;;18.20;7.00;;;20.50;1.00;;;;;;5082127;28;20442;-47
2023/05/18 10:13:18;;;;;;;15.70;6.77;;;21.00;1.00;;;;;;5080071;28;20447;-47
2023/05/18 10:15:53;;;;;;;7.63;4.53;;;21.30;1.00;;;;;;5091290;28;20524;-48
2023/05/18 10:18:22;;;;;;;10.53;5.10;;;21.40;1.00;;;;;;5093742;28;20432;-47
2023/05/18 10:20:49;;;;;;;11.47;5.60;;;21.40;1.00;;;;;;5095157;28;20438;-47
2023/05/18 10:23:19;;;;;;;8.57;4.33;;;21.30;1.00;;;;;;5077776;28;20427;-49
2023/05/18 10:25:48;;;;;;;7.50;4.70;;;21.30;1.00;;;;;;5095638;28;20438;-47
2023/05/18 10:28:24;;;;;;;7.17;4.70;;;21.40;1.00;;;;;;5094421;28;20454;-48
2023/05/18 10:30:52;;;;;;;6.30;4.20;;;21.70;1.00;;;;;;5094182;28;20424;-50
2023/05/18 10:33:18;;;;;;;7.97;4.47;;;21.90;1.00;;;;;;5093289;28;20466;-48
2023/05/18 10:35:44;;;;;;;5.97;5.00;;;22.10;1.00;;;;;;5093504;28;20447;-47
2023/05/18 10:38:11;;;;;;;7.20;4.40;;;21.60;1.00;;;;;;5094973;28;20446;-47
2023/05/18 10:40:38;;;;;;;7.37;4.70;;;21.00;1.00;;;;;;5093940;28;20430;-50
2023/05/18 10:43:05;;;;;;;6.50;4.20;;;20.80;1.00;;;;;;5093326;28;20180;-47
2023/05/18 10:45:34;;;;;;;7.13;4.57;;;20.80;1.00;;;;;;5094501;28;20426;-48
2023/05/18 10:48:01;;;;;;;6.80;4.10;;;21.10;1.00;;;;;;5095344;28;20414;-47
2023/05/18 10:50:27;;;;;;;8.17;4.90;;;21.50;1.00;;;;;;5094318;28;20491;-47
2023/05/18 10:52:52;;;;;;;9.30;4.50;;;21.80;1.00;;;;;;5095223;28;20734;-49
2023/05/18 10:55:18;;;;;;;7.93;4.23;;;22.00;1.00;;;;;;5094392;28;20560;-47
2023/05/18 10:57:52;;;;;;;7.73;4.73;;;22.40;1.00;;;;;;5094928;28;20195;-48
2023/05/18 11:00:19;;;;;;;6.10;4.90;;;22.70;1.00;;;;;;5094740;28;20444;-49
2023/05/18 11:02:45;;;;;;;6.57;4.57;;;23.00;1.00;;;;;;5095781;28;20696;-49
2023/05/18 11:05:11;;;;;;;8.30;4.90;;;23.10;1.00;;;;;;5094399;28;20465;-48
2023/05/18 11:07:37;;;;;;;7.80;4.80;;;23.40;1.00;;;;;;5096415;28;20422;-48
2023/05/18 11:10:10;;;;;;;10.93;5.17;;;23.60;1.00;;;;;;5096410;28;20434;-47
2023/05/18 11:12:37;;;;;;;7.80;5.13;;;23.60;1.00;;;;;;5095131;28;20446;-49
2023/05/18 11:15:04;;;;;;;7.63;4.63;;;23.30;1.00;;;;;;5095863;28;20435;-47
2023/05/18 11:17:32;;;;;;;6.10;4.83;;;23.60;1.00;;;;;;5095879;28;20429;-48
2023/05/18 11:20:06;;;;;;;9.30;4.30;;;24.10;1.00;;;;;;5096013;28;20422;-48
2023/05/18 11:22:45;;;;;;;11.60;4.93;;;24.60;1.00;;;;;;5095424;28;20429;-49
2023/05/18 11:25:31;;;;;;;7.57;4.63;;;25.00;1.00;;;;;;5095846;28;20523;-48
2023/05/18 11:28:04;;;;;;;8.20;4.63;;;25.00;1.00;;;;;;5081438;28;20486;-47
2023/05/18 11:30:44;;;;;;;8.93;3.97;;;24.50;1.00;;;;;;5093501;28;20685;-48
2023/05/18 11:33:31;;;;;;;5.17;4.00;;;24.80;1.00;;;;;;5076720;28;20469;-47
2023/05/18 11:36:00;;;;;;;10.00;4.50;;;24.90;1.00;;;;;;5094131;28;20719;-48
2023/05/18 11:39:01;;;;;;;5.40;3.90;;;24.40;1.00;;;;;;5094130;28;20500;-48
2023/05/18 11:41:29;;;;;;;7.07;4.20;;;24.40;1.00;;;;;;5091081;28;20436;-48
2023/05/18 11:44:10;;;;;;;5.80;3.83;;;24.60;1.00;;;;;;5094808;28;20450;-50
2023/05/18 11:46:39;;;;;;;7.90;4.50;;;24.20;1.00;;;;;;5093189;28;20446;-47
2023/05/18 11:49:08;;;;;;;5.60;4.03;;;24.30;1.00;;;;;;5091584;28;20410;-49
2023/05/18 11:52:04;;;;;;;5.63;4.00;;;24.30;1.00;;;;;;5092796;28;20492;-48
2023/05/18 11:54:56;;;;;;;5.57;4.13;;;24.00;1.00;;;;;;5092710;28;20410;-47
2023/05/18 11:57:25;;;;;;;5.50;4.13;;;24.20;1.00;;;;;;5093229;28;20408;-49
2023/05/18 11:59:55;;;;;;;8.07;3.70;;;24.10;1.00;;;;;;5094817;28;20677;-50
2023/05/18 12:02:25;;;;;;;9.10;5.33;;;24.40;1.00;;;;;;5095439;28;20419;-47
2023/05/18 12:04:52;;;;;;;6.60;3.63;;;24.90;1.00;;;;;;5094069;28;20420;-49
2023/05/18 12:07:19;;;;;;;6.07;4.37;;;24.90;1.00;;;;;;5095696;28;20701;-47
2023/05/18 12:09:45;;;;;;;6.67;4.50;;;24.90;1.00;;;;;;5097929;28;20414;-47
2023/05/18 12:12:15;;;;;;;7.30;4.37;;;25.20;1.00;;;;;;5100541;28;20656;-50
2023/05/18 12:14:41;;;;;;;7.47;4.80;;;25.40;1.00;;;;;;5099608;28;20414;-48
2023/05/18 12:17:07;;;;;;;6.33;4.60;;;25.80;1.00;;;;;;5096739;28;20433;-48
2023/05/18 12:19:43;;;;;;;5.20;3.40;;;25.90;1.00;;;;;;5097447;28;20429;-49
2023/05/18 12:22:10;;;;;;;6.57;4.50;;;25.80;1.00;;;;;;5097172;28;20450;-54
2023/05/18 12:24:37;;;;;;;7.40;4.73;;;26.00;1.00;;;;;;5099147;28;20556;-54
2023/05/18 12:27:05;;;;;;;5.27;3.40;;;26.10;1.00;;;;;;5097542;28;20418;-52
2023/05/18 12:29:31;;;;;;;5.40;3.37;;;26.80;1.00;;;;;;5096971;28;20858;-56
2023/05/18 12:31:57;;;;;;;5.17;3.80;;;28.10;1.00;;;;;;5096923;28;20517;-57
2023/05/18 12:34:28;;;;;;;6.03;4.47;;;29.10;1.00;;;;;;5096988;28;20517;-56
2023/05/18 12:36:54;;;;;;;5.13;3.30;;;29.10;1.00;;;;;;5098256;28;20187;-56
2023/05/18 12:39:20;;;;;;;4.43;3.50;;;30.60;1.00;;;;;;5097301;28;20420;-56
2023/05/18 12:41:46;;;;;;;4.47;3.50;;;31.30;1.00;;;;;;5096312;28;20421;-55
2023/05/18 12:44:12;;;;;;;5.20;4.20;;;31.80;1.00;;;;;;5095761;28;20188;-55
2023/05/18 12:46:38;;;;;;;4.63;3.30;;;31.90;1.00;;;;;;5093964;28;20719;-56
2023/05/18 12:49:05;;;;;;;5.23;3.87;;;31.20;1.00;;;;;;5095018;28;20406;-55
2023/05/18 12:51:34;;;;;;;4.90;3.30;;;30.80;1.00;;;;;;5095534;28;20240;-53
2023/05/18 12:54:02;;;;;;;6.33;4.10;;;29.10;1.00;;;;;;5096706;28;20462;-52
2023/05/18 12:56:51;;;;;;;4.00;3.30;;;29.30;1.00;;;;;;5095572;28;20673;-55
2023/05/18 12:59:18;;;;;;;5.53;3.80;;;28.90;1.00;;;;;;5095415;28;20412;-52
2023/05/18 13:01:44;;;;;;;8.17;3.60;;;28.50;1.00;;;;;;5094492;28;21028;-57